sensor_id;sensor_type;location;lat;lon;timestamp;P1;durP1;ratioP1;P2;durP2;ratioP2
7013;SDS011;3547;50.774;12.918;2024-02-15T00:02:20;0.37;;;0.37;;
7013;SDS011;3547;50.774;12.918;2024-02-15T00:04:58;0.77;;;0.40;;
7013;SDS011;3547;50.774;12.918;2024-02-15T00:07:25;0.13;;;0.13;;
7013;SDS011;3547;50.774;12.918;2024-02-15T00:09:53;0.40;;;0.30;;
7013;SDS011;3547;50.774;12.918;2024-02-15T00:12:31;0.20;;;0.20;;
7013;SDS011;3547;50.774;12.918;2024-02-15T00:15:01;0.50;;;0.30;;
7013;SDS011;3547;50.774;12.918;2024-02-15T00:17:28;1.00;;;0.30;;
7013;SDS011;3547;50.774;12.918;2024-02-15T00:19:57;0.63;;;0.47;;
7013;SDS011;3547;50.774;12.918;2024-02-15T00:22:25;0.40;;;0.40;;
7013;SDS011;3547;50.774;12.918;2024-02-15T00:24:52;0.67;;;0.23;;
7013;SDS011;3547;50.774;12.918;2024-02-15T00:27:25;0.10;;;0.10;;
7013;SDS011;3547;50.774;12.918;2024-02-15T00:29:51;0.30;;;0.30;;
7013;SDS011;3547;50.774;12.918;2024-02-15T00:32:20;0.23;;;0.20;;
7013;SDS011;3547;50.774;12.918;2024-02-15T00:34:48;0.40;;;0.40;;
7013;SDS011;3547;50.774;12.918;2024-02-15T00:37:18;0.20;;;0.20;;
7013;SDS011;3547;50.774;12.918;2024-02-15T00:39:45;0.30;;;0.27;;
7013;SDS011;3547;50.774;12.918;2024-02-15T00:42:11;0.20;;;0.20;;
7013;SDS011;3547;50.774;12.918;2024-02-15T00:44:44;0.27;;;0.27;;
7013;SDS011;3547;50.774;12.918;2024-02-15T00:47:13;0.40;;;0.40;;
7013;SDS011;3547;50.774;12.918;2024-02-15T00:49:39;0.23;;;0.23;;
7013;SDS011;3547;50.774;12.918;2024-02-15T00:52:07;0.20;;;0.20;;
7013;SDS011;3547;50.774;12.918;2024-02-15T00:54:35;0.13;;;0.13;;
7013;SDS011;3547;50.774;12.918;2024-02-15T00:57:04;0.50;;;0.50;;
7013;SDS011;3547;50.774;12.918;2024-02-15T00:59:34;0.33;;;0.33;;
7013;SDS011;3547;50.774;12.918;2024-02-15T01:02:01;0.30;;;0.30;;
7013;SDS011;3547;50.774;12.918;2024-02-15T01:04:31;0.40;;;0.40;;
7013;SDS011;3547;50.774;12.918;2024-02-15T01:06:57;0.47;;;0.40;;
7013;SDS011;3547;50.774;12.918;2024-02-15T01:09:37;0.53;;;0.50;;
7013;SDS011;3547;50.774;12.918;2024-02-15T01:12:12;0.47;;;0.47;;
7013;SDS011;3547;50.774;12.918;2024-02-15T01:14:39;0.23;;;0.23;;
7013;SDS011;3547;50.774;12.918;2024-02-15T01:17:09;0.10;;;0.10;;
7013;SDS011;3547;50.774;12.918;2024-02-15T01:19:36;3.70;;;0.50;;
7013;SDS011;3547;50.774;12.918;2024-02-15T01:22:16;0.40;;;0.40;;
7013;SDS011;3547;50.774;12.918;2024-02-15T01:24:52;0.50;;;0.50;;
7013;SDS011;3547;50.774;12.918;2024-02-15T01:27:23;0.50;;;0.50;;
7013;SDS011;3547;50.774;12.918;2024-02-15T01:33:15;0.30;;;0.30;;
7013;SDS011;3547;50.774;12.918;2024-02-15T01:35:44;0.40;;;0.40;;
7013;SDS011;3547;50.774;12.918;2024-02-15T01:38:19;0.40;;;0.40;;
7013;SDS011;3547;50.774;12.918;2024-02-15T01:40:46;0.50;;;0.50;;
7013;SDS011;3547;50.774;12.918;2024-02-15T01:43:15;0.30;;;0.30;;
7013;SDS011;3547;50.774;12.918;2024-02-15T01:45:42;0.53;;;0.53;;
7013;SDS011;3547;50.774;12.918;2024-02-15T01:48:09;0.30;;;0.30;;
7013;SDS011;3547;50.774;12.918;2024-02-15T01:50:36;0.40;;;0.40;;
7013;SDS011;3547;50.774;12.918;2024-02-15T01:53:04;0.50;;;0.50;;
7013;SDS011;3547;50.774;12.918;2024-02-15T01:55:37;0.30;;;0.30;;
7013;SDS011;3547;50.774;12.918;2024-02-15T01:58:07;0.30;;;0.30;;
7013;SDS011;3547;50.774;12.918;2024-02-15T02:00:34;3.40;;;0.43;;
7013;SDS011;3547;50.774;12.918;2024-02-15T02:03:05;0.40;;;0.40;;
7013;SDS011;3547;50.774;12.918;2024-02-15T02:05:33;0.50;;;0.50;;
7013;SDS011;3547;50.774;12.918;2024-02-15T02:08:05;0.30;;;0.30;;
7013;SDS011;3547;50.774;12.918;2024-02-15T02:10:38;0.23;;;0.23;;
7013;SDS011;3547;50.774;12.918;2024-02-15T02:13:06;0.50;;;0.50;;
7013;SDS011;3547;50.774;12.918;2024-02-15T02:15:33;0.50;;;0.50;;
7013;SDS011;3547;50.774;12.918;2024-02-15T02:18:02;0.57;;;0.57;;
7013;SDS011;3547;50.774;12.918;2024-02-15T02:20:34;0.57;;;0.40;;
7013;SDS011;3547;50.774;12.918;2024-02-15T02:25:39;0.50;;;0.50;;
7013;SDS011;3547;50.774;12.918;2024-02-15T02:28:08;0.63;;;0.53;;
7013;SDS011;3547;50.774;12.918;2024-02-15T02:30:35;0.40;;;0.40;;
7013;SDS011;3547;50.774;12.918;2024-02-15T02:33:02;0.47;;;0.47;;
7013;SDS011;3547;50.774;12.918;2024-02-15T02:35:32;0.40;;;0.40;;
7013;SDS011;3547;50.774;12.918;2024-02-15T02:37:59;0.40;;;0.40;;
7013;SDS011;3547;50.774;12.918;2024-02-15T02:40:33;0.60;;;0.60;;
7013;SDS011;3547;50.774;12.918;2024-02-15T02:43:20;0.60;;;0.60;;
7013;SDS011;3547;50.774;12.918;2024-02-15T02:45:48;0.97;;;0.93;;
7013;SDS011;3547;50.774;12.918;2024-02-15T02:48:21;0.63;;;0.63;;
7013;SDS011;3547;50.774;12.918;2024-02-15T02:50:50;0.50;;;0.50;;
7013;SDS011;3547;50.774;12.918;2024-02-15T02:53:20;0.70;;;0.70;;
7013;SDS011;3547;50.774;12.918;2024-02-15T02:55:47;0.70;;;0.70;;
7013;SDS011;3547;50.774;12.918;2024-02-15T02:58:17;1.03;;;0.67;;
7013;SDS011;3547;50.774;12.918;2024-02-15T03:00:45;0.70;;;0.63;;
7013;SDS011;3547;50.774;12.918;2024-02-15T03:03:19;1.03;;;0.60;;
7013;SDS011;3547;50.774;12.918;2024-02-15T03:05:51;0.50;;;0.50;;
7013;SDS011;3547;50.774;12.918;2024-02-15T03:08:19;0.57;;;0.50;;
7013;SDS011;3547;50.774;12.918;2024-02-15T03:10:49;0.50;;;0.50;;
7013;SDS011;3547;50.774;12.918;2024-02-15T03:13:19;0.50;;;0.50;;
7013;SDS011;3547;50.774;12.918;2024-02-15T03:15:46;0.90;;;0.83;;
7013;SDS011;3547;50.774;12.918;2024-02-15T03:18:17;2.40;;;0.80;;
7013;SDS011;3547;50.774;12.918;2024-02-15T03:20:44;0.60;;;0.60;;
7013;SDS011;3547;50.774;12.918;2024-02-15T03:23:10;0.63;;;0.63;;
7013;SDS011;3547;50.774;12.918;2024-02-15T03:25:37;1.03;;;0.93;;
7013;SDS011;3547;50.774;12.918;2024-02-15T03:28:03;0.87;;;0.87;;
7013;SDS011;3547;50.774;12.918;2024-02-15T03:30:30;0.50;;;0.50;;
7013;SDS011;3547;50.774;12.918;2024-02-15T03:33:01;0.77;;;0.77;;
7013;SDS011;3547;50.774;12.918;2024-02-15T03:35:32;0.70;;;0.70;;
7013;SDS011;3547;50.774;12.918;2024-02-15T03:37:58;0.80;;;0.80;;
7013;SDS011;3547;50.774;12.918;2024-02-15T03:40:32;3.13;;;0.67;;
7013;SDS011;3547;50.774;12.918;2024-02-15T03:43:07;0.90;;;0.90;;
7013;SDS011;3547;50.774;12.918;2024-02-15T03:49:38;1.10;;;0.80;;
7013;SDS011;3547;50.774;12.918;2024-02-15T06:11:57;1.47;;;0.90;;
7013;SDS011;3547;50.774;12.918;2024-02-15T06:20:43;1.30;;;0.90;;
7013;SDS011;3547;50.774;12.918;2024-02-15T06:23:18;1.20;;;1.10;;
7013;SDS011;3547;50.774;12.918;2024-02-15T06:31:09;0.57;;;0.57;;
7013;SDS011;3547;50.774;12.918;2024-02-15T06:50:04;4.33;;;2.67;;
7013;SDS011;3547;50.774;12.918;2024-02-15T07:02:50;0.80;;;0.80;;
7013;SDS011;3547;50.774;12.918;2024-02-15T07:12:15;2.40;;;1.13;;
7013;SDS011;3547;50.774;12.918;2024-02-15T07:15:04;1.00;;;0.90;;
7013;SDS011;3547;50.774;12.918;2024-02-15T07:28:00;3.50;;;2.87;;
7013;SDS011;3547;50.774;12.918;2024-02-15T07:30:31;2.27;;;2.07;;
7013;SDS011;3547;50.774;12.918;2024-02-15T07:36:28;1.57;;;1.40;;
7013;SDS011;3547;50.774;12.918;2024-02-15T07:51:15;2.30;;;1.70;;
7013;SDS011;3547;50.774;12.918;2024-02-15T07:53:45;2.57;;;2.17;;
7013;SDS011;3547;50.774;12.918;2024-02-15T07:59:37;1.37;;;1.27;;
7013;SDS011;3547;50.774;12.918;2024-02-15T08:02:14;1.33;;;1.20;;
7013;SDS011;3547;50.774;12.918;2024-02-15T08:05:17;1.40;;;1.30;;
7013;SDS011;3547;50.774;12.918;2024-02-15T08:13:18;2.43;;;1.80;;
7013;SDS011;3547;50.774;12.918;2024-02-15T08:19:17;2.53;;;1.60;;
7013;SDS011;3547;50.774;12.918;2024-02-15T08:21:48;1.80;;;1.60;;
7013;SDS011;3547;50.774;12.918;2024-02-15T08:24:16;1.60;;;1.47;;
7013;SDS011;3547;50.774;12.918;2024-02-15T08:30:13;1.50;;;1.40;;
7013;SDS011;3547;50.774;12.918;2024-02-15T08:35:16;1.60;;;1.40;;
7013;SDS011;3547;50.774;12.918;2024-02-15T08:37:42;1.43;;;1.17;;
7013;SDS011;3547;50.774;12.918;2024-02-15T08:40:12;1.83;;;1.43;;
7013;SDS011;3547;50.774;12.918;2024-02-15T08:42:44;2.07;;;1.27;;
7013;SDS011;3547;50.774;12.918;2024-02-15T08:45:11;1.77;;;1.40;;
7013;SDS011;3547;50.774;12.918;2024-02-15T08:47:43;1.70;;;1.43;;
7013;SDS011;3547;50.774;12.918;2024-02-15T08:50:11;1.60;;;1.20;;
7013;SDS011;3547;50.774;12.918;2024-02-15T08:52:38;1.77;;;1.37;;
7013;SDS011;3547;50.774;12.918;2024-02-15T08:59:09;1.70;;;1.60;;
7013;SDS011;3547;50.774;12.918;2024-02-15T09:01:44;1.70;;;1.27;;
7013;SDS011;3547;50.774;12.918;2024-02-15T09:04:13;2.13;;;1.93;;
7013;SDS011;3547;50.774;12.918;2024-02-15T09:06:42;1.30;;;1.20;;
7013;SDS011;3547;50.774;12.918;2024-02-15T09:09:14;4.83;;;1.27;;
7013;SDS011;3547;50.774;12.918;2024-02-15T09:11:48;2.07;;;1.60;;
7013;SDS011;3547;50.774;12.918;2024-02-15T09:14:21;1.23;;;1.10;;
7013;SDS011;3547;50.774;12.918;2024-02-15T09:16:49;1.43;;;1.20;;
7013;SDS011;3547;50.774;12.918;2024-02-15T09:19:20;1.30;;;1.20;;
7013;SDS011;3547;50.774;12.918;2024-02-15T09:27:37;2.17;;;1.42;;
7013;SDS011;3547;50.774;12.918;2024-02-15T09:30:04;1.50;;;1.40;;
7013;SDS011;3547;50.774;12.918;2024-02-15T09:32:39;1.40;;;1.10;;
7013;SDS011;3547;50.774;12.918;2024-02-15T09:35:22;1.92;;;1.60;;
7013;SDS011;3547;50.774;12.918;2024-02-15T09:37:52;1.63;;;1.33;;
7013;SDS011;3547;50.774;12.918;2024-02-15T09:40:40;2.50;;;1.20;;
7013;SDS011;3547;50.774;12.918;2024-02-15T09:43:44;1.40;;;1.30;;
7013;SDS011;3547;50.774;12.918;2024-02-15T09:46:13;1.40;;;1.30;;
7013;SDS011;3547;50.774;12.918;2024-02-15T09:48:40;1.90;;;1.50;;
7013;SDS011;3547;50.774;12.918;2024-02-15T09:51:15;1.27;;;1.17;;
7013;SDS011;3547;50.774;12.918;2024-02-15T09:53:52;2.10;;;1.35;;
7013;SDS011;3547;50.774;12.918;2024-02-15T09:56:26;1.37;;;1.27;;
7013;SDS011;3547;50.774;12.918;2024-02-15T10:02:07;1.23;;;1.15;;
7013;SDS011;3547;50.774;12.918;2024-02-15T10:13:27;1.00;;;0.90;;
7013;SDS011;3547;50.774;12.918;2024-02-15T10:19:13;0.93;;;0.93;;
7013;SDS011;3547;50.774;12.918;2024-02-15T10:22:05;4.13;;;1.48;;
7013;SDS011;3547;50.774;12.918;2024-02-15T10:24:40;1.87;;;1.70;;
7013;SDS011;3547;50.774;12.918;2024-02-15T10:27:12;6.43;;;1.42;;
7013;SDS011;3547;50.774;12.918;2024-02-15T10:30:06;1.75;;;1.55;;
7013;SDS011;3547;50.774;12.918;2024-02-15T10:32:53;1.40;;;1.30;;
7013;SDS011;3547;50.774;12.918;2024-02-15T10:35:23;2.53;;;1.80;;
7013;SDS011;3547;50.774;12.918;2024-02-15T10:37:52;1.50;;;1.40;;
7013;SDS011;3547;50.774;12.918;2024-02-15T10:40:40;2.55;;;1.40;;
7013;SDS011;3547;50.774;12.918;2024-02-15T10:43:10;1.35;;;1.20;;
7013;SDS011;3547;50.774;12.918;2024-02-15T10:45:44;1.40;;;1.30;;
7013;SDS011;3547;50.774;12.918;2024-02-15T10:48:42;2.95;;;1.13;;
7013;SDS011;3547;50.774;12.918;2024-02-15T10:51:11;1.30;;;1.20;;
7013;SDS011;3547;50.774;12.918;2024-02-15T10:53:47;2.45;;;1.65;;
7013;SDS011;3547;50.774;12.918;2024-02-15T10:56:26;1.52;;;1.10;;
7013;SDS011;3547;50.774;12.918;2024-02-15T10:59:02;1.38;;;1.27;;
7013;SDS011;3547;50.774;12.918;2024-02-15T11:01:47;2.58;;;1.50;;
7013;SDS011;3547;50.774;12.918;2024-02-15T11:04:20;2.40;;;1.58;;
7013;SDS011;3547;50.774;12.918;2024-02-15T11:06:48;1.88;;;1.42;;
7013;SDS011;3547;50.774;12.918;2024-02-15T11:09:29;1.73;;;1.30;;
7013;SDS011;3547;50.774;12.918;2024-02-15T11:12:08;2.75;;;1.50;;
7013;SDS011;3547;50.774;12.918;2024-02-15T11:14:46;3.13;;;1.75;;
7013;SDS011;3547;50.774;12.918;2024-02-15T11:23:04;2.50;;;1.83;;
7013;SDS011;3547;50.774;12.918;2024-02-15T11:25:37;1.60;;;1.50;;
7013;SDS011;3547;50.774;12.918;2024-02-15T11:31:53;1.73;;;1.48;;
7013;SDS011;3547;50.774;12.918;2024-02-15T11:34:43;2.85;;;2.08;;
7013;SDS011;3547;50.774;12.918;2024-02-15T11:37:57;1.95;;;1.77;;
7013;SDS011;3547;50.774;12.918;2024-02-15T11:40:14;1.05;;;0.90;;
7013;SDS011;3547;50.774;12.918;2024-02-15T11:42:53;2.35;;;1.20;;
7013;SDS011;3547;50.774;12.918;2024-02-15T11:45:20;1.30;;;1.20;;
7013;SDS011;3547;50.774;12.918;2024-02-15T11:50:44;2.10;;;1.27;;
7013;SDS011;3547;50.774;12.918;2024-02-15T11:53:17;1.40;;;1.20;;
7013;SDS011;3547;50.774;12.918;2024-02-15T11:55:47;1.17;;;1.05;;
7013;SDS011;3547;50.774;12.918;2024-02-15T11:58:21;1.83;;;1.00;;
7013;SDS011;3547;50.774;12.918;2024-02-15T12:01:08;1.73;;;1.00;;
7013;SDS011;3547;50.774;12.918;2024-02-15T12:07:23;3.85;;;1.65;;
7013;SDS011;3547;50.774;12.918;2024-02-15T12:10:14;1.20;;;1.10;;
7013;SDS011;3547;50.774;12.918;2024-02-15T12:17:03;0.98;;;0.90;;
7013;SDS011;3547;50.774;12.918;2024-02-15T12:20:03;1.05;;;0.95;;
7013;SDS011;3547;50.774;12.918;2024-02-15T12:22:51;1.80;;;1.00;;
7013;SDS011;3547;50.774;12.918;2024-02-15T12:25:21;0.85;;;0.85;;
7013;SDS011;3547;50.774;12.918;2024-02-15T12:28:02;1.02;;;0.82;;
7013;SDS011;3547;50.774;12.918;2024-02-15T12:30:32;2.58;;;1.90;;
7013;SDS011;3547;50.774;12.918;2024-02-15T12:33:16;1.50;;;1.38;;
7013;SDS011;3547;50.774;12.918;2024-02-15T12:39:15;1.75;;;1.15;;
7013;SDS011;3547;50.774;12.918;2024-02-15T12:42:02;1.25;;;1.05;;
7013;SDS011;3547;50.774;12.918;2024-02-15T12:47:53;1.42;;;1.00;;
7013;SDS011;3547;50.774;12.918;2024-02-15T12:50:28;1.25;;;1.08;;
7013;SDS011;3547;50.774;12.918;2024-02-15T12:52:58;0.88;;;0.73;;
7013;SDS011;3547;50.774;12.918;2024-02-15T12:55:31;0.68;;;0.68;;
7013;SDS011;3547;50.774;12.918;2024-02-15T12:58:16;0.70;;;0.70;;
7013;SDS011;3547;50.774;12.918;2024-02-15T13:00:50;0.90;;;0.70;;
7013;SDS011;3547;50.774;12.918;2024-02-15T13:03:27;2.55;;;0.65;;
7013;SDS011;3547;50.774;12.918;2024-02-15T13:06:09;0.98;;;0.88;;
7013;SDS011;3547;50.774;12.918;2024-02-15T13:15:18;1.30;;;0.93;;
7013;SDS011;3547;50.774;12.918;2024-02-15T13:17:47;1.40;;;1.30;;
7013;SDS011;3547;50.774;12.918;2024-02-15T13:20:17;1.13;;;0.73;;
7013;SDS011;3547;50.774;12.918;2024-02-15T13:23:01;0.65;;;0.65;;
7013;SDS011;3547;50.774;12.918;2024-02-15T13:25:51;0.68;;;0.68;;
7013;SDS011;3547;50.774;12.918;2024-02-15T13:28:25;0.57;;;0.57;;
7013;SDS011;3547;50.774;12.918;2024-02-15T13:31:06;1.10;;;0.85;;
7013;SDS011;3547;50.774;12.918;2024-02-15T13:33:33;1.42;;;1.20;;
7013;SDS011;3547;50.774;12.918;2024-02-15T13:36:00;0.80;;;0.80;;
7013;SDS011;3547;50.774;12.918;2024-02-15T13:38:32;1.02;;;0.98;;
7013;SDS011;3547;50.774;12.918;2024-02-15T13:41:04;2.70;;;1.10;;
7013;SDS011;3547;50.774;12.918;2024-02-15T13:43:33;2.25;;;1.00;;
7013;SDS011;3547;50.774;12.918;2024-02-15T13:46:06;1.40;;;1.30;;
7013;SDS011;3547;50.774;12.918;2024-02-15T13:48:37;0.98;;;0.90;;
7013;SDS011;3547;50.774;12.918;2024-02-15T13:51:26;1.33;;;1.23;;
7013;SDS011;3547;50.774;12.918;2024-02-15T13:53:56;1.10;;;1.00;;
7013;SDS011;3547;50.774;12.918;2024-02-15T13:59:04;1.02;;;0.93;;
7013;SDS011;3547;50.774;12.918;2024-02-15T14:01:32;2.22;;;0.82;;
7013;SDS011;3547;50.774;12.918;2024-02-15T14:04:11;1.15;;;1.02;;
7013;SDS011;3547;50.774;12.918;2024-02-15T14:06:53;2.83;;;2.50;;
7013;SDS011;3547;50.774;12.918;2024-02-15T14:14:50;1.20;;;1.10;;
7013;SDS011;3547;50.774;12.918;2024-02-15T14:17:20;2.10;;;1.40;;
7013;SDS011;3547;50.774;12.918;2024-02-15T14:19:52;1.20;;;0.90;;
7013;SDS011;3547;50.774;12.918;2024-02-15T14:22:26;2.10;;;0.90;;
7013;SDS011;3547;50.774;12.918;2024-02-15T14:24:58;0.95;;;0.75;;
7013;SDS011;3547;50.774;12.918;2024-02-15T14:27:29;0.80;;;0.80;;
7013;SDS011;3547;50.774;12.918;2024-02-15T14:29:56;1.35;;;1.08;;
7013;SDS011;3547;50.774;12.918;2024-02-15T14:32:48;2.15;;;1.60;;
7013;SDS011;3547;50.774;12.918;2024-02-15T14:35:33;0.80;;;0.80;;
7013;SDS011;3547;50.774;12.918;2024-02-15T14:38:11;1.35;;;1.25;;
7013;SDS011;3547;50.774;12.918;2024-02-15T14:40:42;1.13;;;1.02;;
7013;SDS011;3547;50.774;12.918;2024-02-15T14:46:44;1.20;;;1.10;;
7013;SDS011;3547;50.774;12.918;2024-02-15T14:53:34;1.50;;;1.10;;
7013;SDS011;3547;50.774;12.918;2024-02-15T14:56:04;3.25;;;1.48;;
7013;SDS011;3547;50.774;12.918;2024-02-15T14:58:38;2.33;;;1.60;;
7013;SDS011;3547;50.774;12.918;2024-02-15T15:01:07;1.38;;;1.02;;
7013;SDS011;3547;50.774;12.918;2024-02-15T15:03:56;0.60;;;0.60;;
7013;SDS011;3547;50.774;12.918;2024-02-15T15:06:24;1.25;;;1.10;;
7013;SDS011;3547;50.774;12.918;2024-02-15T15:09:11;1.92;;;1.30;;
7013;SDS011;3547;50.774;12.918;2024-02-15T15:11:59;1.58;;;1.20;;
7013;SDS011;3547;50.774;12.918;2024-02-15T15:14:46;1.63;;;1.35;;
7013;SDS011;3547;50.774;12.918;2024-02-15T15:17:29;5.82;;;2.60;;
7013;SDS011;3547;50.774;12.918;2024-02-15T15:20:03;2.20;;;1.52;;
7013;SDS011;3547;50.774;12.918;2024-02-15T15:22:39;5.10;;;3.72;;
7013;SDS011;3547;50.774;12.918;2024-02-15T15:25:17;3.08;;;2.13;;
7013;SDS011;3547;50.774;12.918;2024-02-15T15:27:50;1.42;;;1.23;;
7013;SDS011;3547;50.774;12.918;2024-02-15T15:30:16;1.20;;;1.10;;
7013;SDS011;3547;50.774;12.918;2024-02-15T15:33:03;3.58;;;2.83;;
7013;SDS011;3547;50.774;12.918;2024-02-15T15:35:30;1.55;;;1.45;;
7013;SDS011;3547;50.774;12.918;2024-02-15T15:37:56;2.20;;;1.70;;
7013;SDS011;3547;50.774;12.918;2024-02-15T15:40:26;3.72;;;3.42;;
7013;SDS011;3547;50.774;12.918;2024-02-15T15:43:02;1.67;;;1.40;;
7013;SDS011;3547;50.774;12.918;2024-02-15T15:45:28;7.35;;;5.95;;
7013;SDS011;3547;50.774;12.918;2024-02-15T15:47:55;9.32;;;6.10;;
7013;SDS011;3547;50.774;12.918;2024-02-15T15:50:24;4.72;;;2.35;;
7013;SDS011;3547;50.774;12.918;2024-02-15T15:52:51;2.53;;;1.75;;
7013;SDS011;3547;50.774;12.918;2024-02-15T15:55:19;1.65;;;1.40;;
7013;SDS011;3547;50.774;12.918;2024-02-15T15:58:04;6.45;;;3.95;;
7013;SDS011;3547;50.774;12.918;2024-02-15T16:00:36;3.47;;;2.90;;
7013;SDS011;3547;50.774;12.918;2024-02-15T16:03:09;4.10;;;3.38;;
7013;SDS011;3547;50.774;12.918;2024-02-15T16:05:56;2.67;;;2.38;;
7013;SDS011;3547;50.774;12.918;2024-02-15T16:08:23;2.05;;;1.63;;
7013;SDS011;3547;50.774;12.918;2024-02-15T16:10:55;2.47;;;2.05;;
7013;SDS011;3547;50.774;12.918;2024-02-15T16:13:24;1.88;;;1.77;;
7013;SDS011;3547;50.774;12.918;2024-02-15T16:15:52;17.90;;;10.90;;
7013;SDS011;3547;50.774;12.918;2024-02-15T16:18:22;3.17;;;2.55;;
7013;SDS011;3547;50.774;12.918;2024-02-15T16:20:52;2.20;;;2.00;;
7013;SDS011;3547;50.774;12.918;2024-02-15T16:23:25;1.77;;;1.50;;
7013;SDS011;3547;50.774;12.918;2024-02-15T16:25:54;1.48;;;1.30;;
7013;SDS011;3547;50.774;12.918;2024-02-15T16:28:23;1.38;;;1.27;;
7013;SDS011;3547;50.774;12.918;2024-02-15T16:30:50;2.33;;;2.13;;
7013;SDS011;3547;50.774;12.918;2024-02-15T16:33:19;3.40;;;2.80;;
7013;SDS011;3547;50.774;12.918;2024-02-15T16:35:54;2.90;;;2.25;;
7013;SDS011;3547;50.774;12.918;2024-02-15T16:38:35;1.95;;;1.75;;
7013;SDS011;3547;50.774;12.918;2024-02-15T16:41:06;5.18;;;4.05;;
7013;SDS011;3547;50.774;12.918;2024-02-15T16:43:35;8.30;;;4.45;;
7013;SDS011;3547;50.774;12.918;2024-02-15T16:46:04;3.92;;;3.28;;
7013;SDS011;3547;50.774;12.918;2024-02-15T16:48:30;3.20;;;2.63;;
7013;SDS011;3547;50.774;12.918;2024-02-15T16:50:56;3.57;;;2.77;;
7013;SDS011;3547;50.774;12.918;2024-02-15T16:53:24;3.27;;;2.77;;
7013;SDS011;3547;50.774;12.918;2024-02-15T16:55:55;2.60;;;1.77;;
7013;SDS011;3547;50.774;12.918;2024-02-15T16:58:44;3.53;;;3.17;;
7013;SDS011;3547;50.774;12.918;2024-02-15T17:01:13;1.60;;;1.50;;
7013;SDS011;3547;50.774;12.918;2024-02-15T17:03:40;2.10;;;1.90;;
7013;SDS011;3547;50.774;12.918;2024-02-15T17:06:06;1.70;;;1.60;;
7013;SDS011;3547;50.774;12.918;2024-02-15T17:08:33;3.13;;;2.00;;
7013;SDS011;3547;50.774;12.918;2024-02-15T17:10:59;2.47;;;1.60;;
7013;SDS011;3547;50.774;12.918;2024-02-15T17:13:25;2.13;;;1.93;;
7013;SDS011;3547;50.774;12.918;2024-02-15T17:15:54;1.97;;;1.50;;
7013;SDS011;3547;50.774;12.918;2024-02-15T17:18:21;2.40;;;1.90;;
7013;SDS011;3547;50.774;12.918;2024-02-15T17:20:48;3.53;;;2.43;;
7013;SDS011;3547;50.774;12.918;2024-02-15T17:23:14;2.97;;;2.30;;
7013;SDS011;3547;50.774;12.918;2024-02-15T17:25:40;2.10;;;1.80;;
7013;SDS011;3547;50.774;12.918;2024-02-15T17:28:09;2.67;;;2.23;;
7013;SDS011;3547;50.774;12.918;2024-02-15T17:30:36;3.90;;;1.90;;
7013;SDS011;3547;50.774;12.918;2024-02-15T17:33:02;4.90;;;3.10;;
7013;SDS011;3547;50.774;12.918;2024-02-15T17:35:32;3.17;;;2.33;;
7013;SDS011;3547;50.774;12.918;2024-02-15T17:38:00;3.07;;;2.23;;
7013;SDS011;3547;50.774;12.918;2024-02-15T17:40:26;5.03;;;1.53;;
7013;SDS011;3547;50.774;12.918;2024-02-15T17:42:53;2.97;;;2.60;;
7013;SDS011;3547;50.774;12.918;2024-02-15T17:45:21;2.77;;;2.37;;
7013;SDS011;3547;50.774;12.918;2024-02-15T17:47:51;2.57;;;1.90;;
7013;SDS011;3547;50.774;12.918;2024-02-15T17:50:18;1.87;;;1.47;;
7013;SDS011;3547;50.774;12.918;2024-02-15T17:52:47;1.57;;;1.40;;
7013;SDS011;3547;50.774;12.918;2024-02-15T17:55:14;3.10;;;2.00;;
7013;SDS011;3547;50.774;12.918;2024-02-15T17:57:40;3.13;;;2.47;;
7013;SDS011;3547;50.774;12.918;2024-02-15T18:02:48;5.40;;;3.60;;
7013;SDS011;3547;50.774;12.918;2024-02-15T18:05:19;6.47;;;4.43;;
7013;SDS011;3547;50.774;12.918;2024-02-15T18:07:46;7.17;;;4.73;;
7013;SDS011;3547;50.774;12.918;2024-02-15T18:10:12;6.27;;;3.53;;
7013;SDS011;3547;50.774;12.918;2024-02-15T18:12:40;5.23;;;3.30;;
7013;SDS011;3547;50.774;12.918;2024-02-15T18:15:08;3.97;;;3.07;;
7013;SDS011;3547;50.774;12.918;2024-02-15T18:17:57;3.07;;;2.20;;
7013;SDS011;3547;50.774;12.918;2024-02-15T18:20:23;2.43;;;2.23;;
7013;SDS011;3547;50.774;12.918;2024-02-15T18:22:53;3.27;;;2.40;;
7013;SDS011;3547;50.774;12.918;2024-02-15T18:25:29;3.50;;;2.30;;
7013;SDS011;3547;50.774;12.918;2024-02-15T18:27:59;3.27;;;2.97;;
7013;SDS011;3547;50.774;12.918;2024-02-15T18:30:28;4.97;;;3.70;;
7013;SDS011;3547;50.774;12.918;2024-02-15T18:32:59;4.23;;;3.70;;
7013;SDS011;3547;50.774;12.918;2024-02-15T18:35:36;3.73;;;2.90;;
7013;SDS011;3547;50.774;12.918;2024-02-15T18:38:11;3.43;;;2.73;;
7013;SDS011;3547;50.774;12.918;2024-02-15T18:40:40;4.10;;;3.00;;
7013;SDS011;3547;50.774;12.918;2024-02-15T18:43:07;4.57;;;3.17;;
7013;SDS011;3547;50.774;12.918;2024-02-15T18:45:34;4.10;;;3.50;;
7013;SDS011;3547;50.774;12.918;2024-02-15T18:48:02;5.87;;;3.00;;
7013;SDS011;3547;50.774;12.918;2024-02-15T18:50:29;4.27;;;3.17;;
7013;SDS011;3547;50.774;12.918;2024-02-15T18:52:56;5.33;;;3.67;;
7013;SDS011;3547;50.774;12.918;2024-02-15T18:55:38;4.13;;;3.27;;
7013;SDS011;3547;50.774;12.918;2024-02-15T18:58:04;4.20;;;3.23;;
7013;SDS011;3547;50.774;12.918;2024-02-15T19:00:34;7.27;;;3.57;;
7013;SDS011;3547;50.774;12.918;2024-02-15T19:03:17;3.37;;;2.27;;
7013;SDS011;3547;50.774;12.918;2024-02-15T19:05:46;2.13;;;1.83;;
7013;SDS011;3547;50.774;12.918;2024-02-15T19:08:12;1.73;;;1.60;;
7013;SDS011;3547;50.774;12.918;2024-02-15T19:10:48;5.37;;;1.80;;
7013;SDS011;3547;50.774;12.918;2024-02-15T19:13:18;3.80;;;2.27;;
7013;SDS011;3547;50.774;12.918;2024-02-15T19:15:46;2.70;;;2.30;;
7013;SDS011;3547;50.774;12.918;2024-02-15T19:18:22;2.60;;;2.07;;
7013;SDS011;3547;50.774;12.918;2024-02-15T19:20:53;2.40;;;1.57;;
7013;SDS011;3547;50.774;12.918;2024-02-15T19:23:33;2.37;;;2.17;;
7013;SDS011;3547;50.774;12.918;2024-02-15T19:26:00;2.73;;;1.90;;
7013;SDS011;3547;50.774;12.918;2024-02-15T19:28:26;1.70;;;1.47;;
7013;SDS011;3547;50.774;12.918;2024-02-15T19:30:58;2.50;;;2.27;;
7013;SDS011;3547;50.774;12.918;2024-02-15T19:33:25;2.87;;;2.50;;
7013;SDS011;3547;50.774;12.918;2024-02-15T19:35:52;2.67;;;2.47;;
7013;SDS011;3547;50.774;12.918;2024-02-15T19:38:18;4.10;;;3.13;;
7013;SDS011;3547;50.774;12.918;2024-02-15T19:40:45;2.87;;;2.60;;
7013;SDS011;3547;50.774;12.918;2024-02-15T19:43:12;4.33;;;3.63;;
7013;SDS011;3547;50.774;12.918;2024-02-15T19:45:46;4.30;;;3.40;;
7013;SDS011;3547;50.774;12.918;2024-02-15T19:48:13;4.07;;;3.67;;
7013;SDS011;3547;50.774;12.918;2024-02-15T19:50:39;4.87;;;3.63;;
7013;SDS011;3547;50.774;12.918;2024-02-15T19:56:34;6.67;;;5.00;;
7013;SDS011;3547;50.774;12.918;2024-02-15T19:59:14;5.97;;;4.43;;
7013;SDS011;3547;50.774;12.918;2024-02-15T20:05:42;3.07;;;2.20;;
7013;SDS011;3547;50.774;12.918;2024-02-15T20:08:11;1.80;;;1.70;;
7013;SDS011;3547;50.774;12.918;2024-02-15T20:10:37;2.50;;;1.80;;
7013;SDS011;3547;50.774;12.918;2024-02-15T20:13:06;2.40;;;1.97;;
7013;SDS011;3547;50.774;12.918;2024-02-15T20:15:32;2.57;;;2.23;;
7013;SDS011;3547;50.774;12.918;2024-02-15T20:17:59;5.37;;;4.63;;
7013;SDS011;3547;50.774;12.918;2024-02-15T20:20:27;4.93;;;3.53;;
7013;SDS011;3547;50.774;12.918;2024-02-15T20:22:54;4.10;;;2.50;;
7013;SDS011;3547;50.774;12.918;2024-02-15T20:25:20;2.40;;;2.20;;
7013;SDS011;3547;50.774;12.918;2024-02-15T20:27:47;3.73;;;2.10;;
7013;SDS011;3547;50.774;12.918;2024-02-15T20:30:17;4.47;;;2.60;;
7013;SDS011;3547;50.774;12.918;2024-02-15T20:32:46;4.20;;;2.80;;
7013;SDS011;3547;50.774;12.918;2024-02-15T20:35:12;4.17;;;2.90;;
7013;SDS011;3547;50.774;12.918;2024-02-15T20:37:39;4.57;;;3.47;;
7013;SDS011;3547;50.774;12.918;2024-02-15T20:40:06;3.23;;;2.57;;
7013;SDS011;3547;50.774;12.918;2024-02-15T20:42:33;3.37;;;2.27;;
7013;SDS011;3547;50.774;12.918;2024-02-15T20:45:00;3.30;;;2.50;;
7013;SDS011;3547;50.774;12.918;2024-02-15T20:47:30;2.50;;;2.17;;
7013;SDS011;3547;50.774;12.918;2024-02-15T20:50:00;4.27;;;2.20;;
7013;SDS011;3547;50.774;12.918;2024-02-15T20:52:26;2.67;;;1.97;;
7013;SDS011;3547;50.774;12.918;2024-02-15T20:54:54;4.77;;;2.43;;